Time;durP1;ratioP1;P1;durP2;ratioP2;P2;SDS_P1;SDS_P2;PMS_P1;PMS_P2;Temp;Humidity;BMP_temperature;BMP_pressure;BME280_temperature;BME280_humidity;BME280_pressure;Samples;Min_cycle;Max_cycle;Signal;HPM_P1;HPM_P2
2022/08/03 00:02:21;;;;;;;6.70;2.20;;;;;;;20.37;46.32;99928.94;10336048;28;20062;-78
2022/08/03 00:07:23;;;;;;;6.20;2.28;;;;;;;20.22;46.66;99922.50;10335484;28;20116;-77
2022/08/03 00:12:25;;;;;;;5.70;2.30;;;;;;;20.07;47.29;99921.38;10349659;28;20053;-78
2022/08/03 00:17:27;;;;;;;3.92;2.10;;;;;;;20.06;47.05;99936.47;10336943;28;20436;-77
2022/08/03 00:22:29;;;;;;;3.72;2.10;;;;;;;19.98;47.48;99922.28;10334022;28;20050;-78
2022/08/03 00:27:37;;;;;;;6.03;2.10;;;;;;;19.82;48.35;99927.44;10332664;28;20042;-77
2022/08/03 00:32:40;;;;;;;4.65;2.20;;;;;;;19.67;48.03;99923.59;10347025;28;20105;-77
2022/08/03 00:37:46;;;;;;;3.58;2.15;;;;;;;19.66;48.28;99919.28;10349858;28;20050;-77
2022/08/03 00:42:59;;;;;;;3.85;2.22;;;;;;;19.48;48.72;99922.72;10333006;28;20104;-77
2022/08/03 00:48:02;;;;;;;4.03;2.13;;;;;;;19.44;48.54;99926.66;10346491;28;20054;-78
2022/08/03 00:53:08;;;;;;;4.03;2.00;;;;;;;19.45;48.63;99925.69;10330880;28;20510;-77
2022/08/03 00:58:11;;;;;;;8.90;2.40;;;;;;;19.39;48.71;99920.13;10329547;28;20120;-77
2022/08/03 01:03:12;;;;;;;3.10;2.28;;;;;;;19.23;49.03;99918.13;10330076;28;20062;-78
2022/08/03 01:08:26;;;;;;;3.92;2.30;;;;;;;19.13;49.56;99919.16;10330011;28;20096;-78
2022/08/03 01:13:39;;;;;;;5.63;2.30;;;;;;;18.89;49.72;99922.25;10332263;28;20046;-77
2022/08/03 01:19:26;;;;;;;5.15;2.38;;;;;;;18.94;50.02;99920.00;10331856;28;20145;-77
2022/08/03 01:24:44;;;;;;;3.42;2.22;;;;;;;18.81;50.52;99919.50;10346333;28;20050;-78
2022/08/03 01:30:01;;;;;;;5.72;2.25;;;;;;;18.79;50.32;99913.50;10348962;28;20578;-77
2022/08/03 01:35:08;;;;;;;6.38;2.50;;;;;;;18.76;50.33;99910.31;10347720;28;20054;-77
2022/08/03 01:40:12;;;;;;;6.13;2.30;;;;;;;18.71;50.06;99908.09;10346216;28;20115;-77
2022/08/03 01:45:18;;;;;;;4.38;2.50;;;;;;;18.71;50.38;99916.03;10332616;28;21111;-77
2022/08/03 01:50:24;;;;;;;6.65;2.20;;;;;;;18.74;50.35;99913.13;10333960;28;20054;-77
2022/08/03 01:55:30;;;;;;;5.65;2.33;;;;;;;18.69;50.74;99912.69;10334118;28;20160;-77
2022/08/03 02:00:36;;;;;;;5.10;2.33;;;;;;;18.59;50.82;99910.06;10346432;28;20047;-77
2022/08/03 02:05:44;;;;;;;7.95;2.40;;;;;;;18.48;51.50;99902.28;10339143;28;20133;-77
2022/08/03 02:10:47;;;;;;;4.82;2.35;;;;;;;18.37;51.30;99906.91;10339134;28;20069;-77
2022/08/03 02:15:51;;;;;;;4.45;2.38;;;;;;;18.25;51.92;99906.25;10341378;28;20065;-77
2022/08/03 02:20:54;;;;;;;6.20;2.30;;;;;;;18.29;51.34;99912.06;10361256;28;20102;-77
2022/08/03 02:25:59;;;;;;;6.85;2.47;;;;;;;18.34;51.27;99909.84;10344098;28;20104;-77
2022/08/03 02:31:07;;;;;;;5.72;2.42;;;;;;;18.25;51.80;99915.97;10358460;28;20283;-77
2022/08/03 02:36:13;;;;;;;5.72;2.40;;;;;;;18.19;52.07;99912.09;10344859;28;20123;-77
2022/08/03 02:41:19;;;;;;;3.80;2.40;;;;;;;18.15;51.68;99909.81;10345026;28;20062;-77
2022/08/03 02:46:27;;;;;;;5.35;2.50;;;;;;;18.09;52.31;99910.38;10357400;28;20493;-77
2022/08/03 02:51:32;;;;;;;5.25;2.50;;;;;;;17.94;52.69;99911.75;10340761;28;20049;-77
2022/08/03 02:56:36;;;;;;;7.38;2.67;;;;;;;17.62;53.07;99915.50;10345119;28;20805;-76
2022/08/03 03:01:38;;;;;;;3.50;2.22;;;;;;;17.49;53.34;99912.28;10340524;28;20061;-76
2022/08/03 03:06:41;;;;;;;5.30;2.40;;;;;;;17.57;53.13;99901.00;10339518;28;20101;-77
2022/08/03 03:11:49;;;;;;;4.68;2.47;;;;;;;17.54;53.52;99902.13;10349315;28;20057;-77
2022/08/03 03:16:51;;;;;;;4.50;2.70;;;;;;;17.01;54.03;99906.81;10334220;28;20082;-77
2022/08/03 03:22:03;;;;;;;5.63;2.47;;;;;;;16.82;55.13;99901.44;10335697;28;20547;-77
2022/08/03 03:27:05;;;;;;;7.15;2.58;;;;;;;16.92;54.92;99906.75;10350142;28;20058;-77
2022/08/03 03:32:07;;;;;;;3.42;2.72;;;;;;;17.08;54.62;99914.22;10335239;28;20610;-76
2022/08/03 03:37:09;;;;;;;3.92;2.78;;;;;;;17.15;54.29;99912.69;10332488;28;20377;-76
2022/08/03 03:42:11;;;;;;;6.88;2.53;;;;;;;17.14;54.30;99918.97;10337062;28;20054;-77
2022/08/03 03:47:13;;;;;;;4.97;2.70;;;;;;;17.17;54.52;99916.88;10335231;28;20172;-77
2022/08/03 03:52:17;;;;;;;5.22;2.60;;;;;;;17.15;54.43;99913.53;10351203;28;21004;-77
2022/08/03 03:57:18;;;;;;;5.88;2.60;;;;;;;17.25;54.08;99913.56;10333177;28;20042;-76
2022/08/03 04:02:20;;;;;;;5.20;3.35;;;;;;;16.88;55.11;99913.28;10331723;28;20113;-77
2022/08/03 04:12:47;;;;;;;4.25;2.70;;;;;;;16.96;55.25;99916.94;10334551;28;20100;-76
2022/08/03 04:17:54;;;;;;;4.47;2.70;;;;;;;17.07;55.00;99913.38;10335110;28;20100;-77
2022/08/03 04:22:59;;;;;;;4.28;2.72;;;;;;;17.16;54.90;99912.53;10347413;28;20120;-77
2022/08/03 04:28:01;;;;;;;5.47;2.78;;;;;;;17.10;54.47;99915.72;10349627;28;20082;-77
2022/08/03 04:33:25;;;;;;;4.95;3.10;;;;;;;16.80;54.94;99921.84;10333789;28;20486;-77
2022/08/03 04:38:35;;;;;;;5.03;2.72;;;;;;;16.69;55.60;99926.41;10332653;28;20046;-77
2022/08/03 04:43:39;;;;;;;4.50;2.60;;;;;;;18.93;51.72;99912.22;10331709;28;20046;-77
2022/08/03 04:48:41;;;;;;;4.70;2.60;;;;;;;21.27;46.30;99913.41;10333474;28;20566;-77
2022/08/03 04:53:45;;;;;;;5.07;2.30;;;;;;;23.88;40.97;99897.66;10347516;28;20042;-77
2022/08/03 04:58:47;;;;;;;5.18;2.40;;;;;;;25.52;37.64;99898.41;10333784;28;20444;-77
2022/08/03 05:03:49;;;;;;;4.60;2.40;;;;;;;27.10;34.86;99895.25;10333956;28;20086;-77
2022/08/03 05:08:51;;;;;;;4.13;2.30;;;;;;;28.20;32.61;99899.38;10333419;28;20081;-78
2022/08/03 05:13:52;;;;;;;3.85;2.10;;;;;;;28.91;31.24;99895.88;10330384;28;20049;-78
2022/08/03 05:18:54;;;;;;;3.92;1.90;;;;;;;29.56;30.05;99899.41;10344232;28;20065;-78
2022/08/03 05:23:56;;;;;;;4.18;2.25;;;;;;;27.76;31.67;99904.47;10328266;28;20077;-78
2022/08/03 05:28:58;;;;;;;3.72;2.00;;;;;;;25.27;35.37;99923.81;10326202;28;20249;-78
2022/08/03 05:34:00;;;;;;;3.33;2.17;;;;;;;23.61;38.25;99922.22;10330255;28;20061;-78
2022/08/03 05:39:02;;;;;;;3.15;2.15;;;;;;;22.49;40.58;99926.84;10328006;28;20433;-78
2022/08/03 05:44:04;;;;;;;6.30;2.40;;;;;;;21.96;41.56;99931.78;10329090;28;20096;-78
2022/08/03 05:49:05;;;;;;;4.57;2.22;;;;;;;21.36;42.84;99932.91;10333164;28;20520;-77
2022/08/03 05:54:07;;;;;;;2.72;2.20;;;;;;;21.24;43.23;99935.00;10340610;28;20065;-78
2022/08/03 05:59:09;;;;;;;4.22;2.55;;;;;;;21.20;43.60;99935.47;10340707;28;20057;-78
2022/08/03 06:04:31;;;;;;;6.13;2.40;;;;;;;21.07;44.20;99931.41;10332320;28;20139;-78
2022/08/03 06:09:33;;;;;;;4.30;2.60;;;;;;;20.96;44.93;99931.72;10346835;28;20046;-78
2022/08/03 06:14:55;;;;;;;5.43;2.70;;;;;;;20.88;45.13;99934.31;10327442;28;20435;-77
2022/08/03 06:19:57;;;;;;;6.53;2.90;;;;;;;20.90;45.71;99942.97;10338676;28;20051;-77
2022/08/03 06:24:58;;;;;;;7.95;3.30;;;;;;;20.96;45.46;99934.38;10333446;28;20057;-78
2022/08/03 06:30:07;;;;;;;6.47;3.50;;;;;;;21.08;45.70;99935.75;10337434;28;20053;-78
2022/08/03 06:35:11;;;;;;;9.23;3.40;;;;;;;21.08;45.95;99940.25;10350536;28;20053;-77
2022/08/03 06:40:15;;;;;;;7.10;3.13;;;;;;;21.32;45.74;99936.88;10338975;28;20440;-78
2022/08/03 06:45:25;;;;;;;10.35;3.13;;;;;;;21.56;44.94;99934.31;10338806;28;20057;-78
2022/08/03 06:50:33;;;;;;;5.03;2.90;;;;;;;21.72;44.74;99929.88;10350836;28;20054;-78
2022/08/03 06:55:35;;;;;;;6.72;3.08;;;;;;;21.68;44.13;99927.72;10339902;28;20159;-78
2022/08/03 07:00:42;;;;;;;5.38;2.80;;;;;;;21.70;43.82;99925.72;10350170;28;20046;-78
2022/08/03 07:05:46;;;;;;;7.38;3.00;;;;;;;21.69;44.59;99935.53;10258052;28;20114;-78
2022/08/03 07:10:47;;;;;;;5.05;2.67;;;;;;;21.81;43.89;99938.72;10256363;28;20046;-77
2022/08/03 07:15:49;;;;;;;8.70;2.85;;;;;;;21.95;43.00;99930.09;10255946;28;20497;-77
2022/08/03 07:20:57;;;;;;;3.95;2.35;;;;;;;22.10;42.71;99930.31;10255439;28;20515;-78
2022/08/03 07:25:59;;;;;;;6.15;2.60;;;;;;;22.13;42.50;99943.31;10259019;28;20457;-81
2022/08/03 07:31:01;;;;;;;4.25;2.15;;;;;;;22.46;41.93;99943.16;10271593;28;20055;-81
2022/08/03 07:36:03;;;;;;;4.47;2.55;;;;;;;22.73;40.97;99944.66;10254803;28;20058;-80
2022/08/03 07:41:05;;;;;;;6.13;2.30;;;;;;;23.81;39.40;99944.78;10258084;28;20055;-81
2022/08/03 07:46:06;;;;;;;5.57;2.20;;;;;;;25.10;36.46;99939.22;10272557;28;20058;-81
2022/08/03 07:51:08;;;;;;;5.60;2.40;;;;;;;26.27;35.22;99927.47;10273258;28;20059;-81
2022/08/03 07:56:10;;;;;;;5.60;2.40;;;;;;;27.49;33.45;99919.66;10254599;28;20106;-81
2022/08/03 08:01:12;;;;;;;13.23;2.53;;;;;;;27.73;31.96;99918.34;10261518;28;20054;-82
2022/08/03 08:06:16;;;;;;;3.42;2.08;;;;;;;28.72;30.89;99904.78;10353467;28;20057;-80
2022/08/03 08:11:21;;;;;;;8.07;2.30;;;;;;;29.11;30.02;99905.78;10350921;28;20424;-81
2022/08/03 08:16:22;;;;;;;10.57;2.92;;;;;;;29.54;29.11;99885.34;10335274;28;20058;-82
2022/08/03 08:21:24;;;;;;;5.75;2.13;;;;;;;30.31;28.38;99885.03;10334449;28;20471;-79
2022/08/03 08:26:46;;;;;;;6.45;2.40;;;;;;;30.62;28.45;99885.81;10333211;28;20627;-79
2022/08/03 08:31:49;;;;;;;7.53;2.10;;;;;;;31.32;27.05;99883.63;10329996;28;20054;-79
2022/08/03 08:36:51;;;;;;;7.78;2.08;;;;;;;31.75;26.31;99876.22;10332293;28;20508;-79
2022/08/03 08:41:54;;;;;;;5.50;1.88;;;;;;;31.86;26.18;99870.00;10330346;28;20060;-79
2022/08/03 08:46:59;;;;;;;4.55;2.13;;;;;;;31.81;26.07;99878.00;10333514;28;20522;-79
2022/08/03 08:52:04;;;;;;;6.00;2.10;;;;;;;31.97;25.91;99869.22;10335895;28;20045;-79
2022/08/03 08:57:33;;;;;;;6.28;1.92;;;;;;;32.20;25.00;99869.31;10346928;28;20068;-78
2022/08/03 09:02:45;;;;;;;5.90;1.90;;;;;;;32.13;25.29;99865.88;10331765;28;20234;-79
2022/08/03 09:07:48;;;;;;;6.43;2.00;;;;;;;32.49;24.78;99864.91;10330819;28;20053;-78
2022/08/03 09:12:51;;;;;;;6.57;1.90;;;;;;;32.41;24.91;99858.97;10333519;28;20119;-79
2022/08/03 09:18:02;;;;;;;3.88;1.90;;;;;;;32.60;24.60;99864.06;10334321;28;20495;-78
2022/08/03 09:23:08;;;;;;;4.60;1.70;;;;;;;32.44;24.04;99851.19;10327829;28;21143;-78
2022/08/03 09:28:35;;;;;;;4.38;1.90;;;;;;;32.44;24.13;99842.25;10344309;28;20316;-79
2022/08/03 09:34:04;;;;;;;4.80;1.60;;;;;;;32.74;23.42;99840.25;10330042;28;20054;-78
2022/08/03 09:39:10;;;;;;;3.83;1.70;;;;;;;33.01;23.69;99833.28;10330969;28;20477;-78
2022/08/03 09:44:13;;;;;;;5.07;1.80;;;;;;;33.31;23.08;99827.66;10338841;28;20092;-79
2022/08/03 09:49:29;;;;;;;6.38;1.90;;;;;;;33.29;22.08;99825.19;10346578;28;20415;-79
2022/08/03 09:54:34;;;;;;;3.47;1.60;;;;;;;33.81;22.80;99821.31;10347942;28;20148;-79
2022/08/03 09:59:36;;;;;;;5.30;1.73;;;;;;;34.24;22.42;99819.88;10330081;28;20927;-79
2022/08/03 10:04:51;;;;;;;3.00;1.60;;;;;;;34.33;21.82;99819.19;10323603;28;20081;-79
2022/08/03 10:09:58;;;;;;;4.28;1.52;;;;;;;34.04;21.58;99812.22;10326866;28;20050;-79
2022/08/03 10:15:23;;;;;;;4.82;1.52;;;;;;;34.01;22.12;99799.16;10344925;28;20060;-79
2022/08/03 10:20:51;;;;;;;4.43;1.73;;;;;;;34.42;21.30;99798.72;10329787;28;20058;-79
2022/08/03 10:26:00;;;;;;;8.00;1.58;;;;;;;34.41;21.00;99788.94;10330164;28;20085;-79
2022/08/03 10:31:06;;;;;;;4.15;1.67;;;;;;;34.32;21.52;99789.59;10331199;28;20088;-79
2022/08/03 10:36:11;;;;;;;5.35;1.33;;;;;;;34.19;21.18;99777.16;10335843;28;20046;-80
2022/08/03 10:41:16;;;;;;;5.38;1.60;;;;;;;33.33;22.14;99769.41;10353768;28;20491;-79
2022/08/03 10:46:20;;;;;;;6.07;1.90;;;;;;;33.27;22.35;99766.88;10334002;28;20054;-79
2022/08/03 10:51:29;;;;;;;6.35;1.95;;;;;;;33.47;22.39;99761.84;10354025;28;20061;-79
2022/08/03 11:01:56;;;;;;;5.32;1.70;;;;;;;32.69;23.33;99758.91;10332728;28;20094;-79
2022/08/03 11:07:21;;;;;;;7.38;1.77;;;;;;;32.60;23.10;99749.50;10334340;28;20125;-79
2022/08/03 11:12:31;;;;;;;4.80;1.77;;;;;;;32.73;22.74;99743.81;10331767;28;20049;-79
2022/08/03 11:17:37;;;;;;;6.50;1.90;;;;;;;32.77;22.93;99742.28;10328102;28;20496;-79
2022/08/03 11:23:01;;;;;;;3.80;1.58;;;;;;;32.87;22.61;99742.47;10337291;28;20049;-79
2022/08/03 11:28:27;;;;;;;6.15;1.50;;;;;;;32.81;22.80;99727.19;10335273;28;20081;-78
2022/08/03 11:33:37;;;;;;;4.03;1.80;;;;;;;32.82;22.91;99736.97;10334644;28;20056;-79
2022/08/03 11:39:19;;;;;;;8.18;1.80;;;;;;;32.86;22.49;99725.38;10333186;28;20096;-79
2022/08/03 11:44:40;;;;;;;3.50;1.50;;;;;;;32.89;22.46;99729.50;10332382;28;20113;-79
2022/08/03 11:49:50;;;;;;;5.30;1.80;;;;;;;32.86;22.88;99728.09;10331898;28;20050;-79
2022/08/03 11:54:54;;;;;;;3.92;1.70;;;;;;;32.95;22.73;99729.38;10334639;28;20058;-79
2022/08/03 12:00:29;;;;;;;4.00;1.60;;;;;;;33.08;22.35;99722.06;10337064;28;20046;-79
2022/08/03 12:05:39;;;;;;;4.80;1.80;;;;;;;33.05;22.16;99723.34;10328272;28;20426;-80
2022/08/03 12:10:47;;;;;;;4.72;1.65;;;;;;;33.02;22.45;99711.09;10352139;28;20045;-79
2022/08/03 12:15:55;;;;;;;8.52;1.90;;;;;;;33.03;22.17;99711.94;10344606;28;20058;-78
2022/08/03 12:21:05;;;;;;;3.77;1.90;;;;;;;33.08;22.19;99712.03;10330851;28;20077;-79
2022/08/03 12:26:09;;;;;;;5.88;1.80;;;;;;;33.14;22.59;99697.53;10335525;28;20566;-79
2022/08/03 12:31:23;;;;;;;5.72;1.60;;;;;;;33.37;21.64;99696.56;10332244;28;20038;-80
2022/08/03 12:36:29;;;;;;;4.43;1.75;;;;;;;33.43;21.64;99690.16;10332021;28;20080;-80
2022/08/03 12:41:36;;;;;;;2.05;1.33;;;;;;;33.75;20.69;99694.78;10329995;28;20042;-80
2022/08/03 12:46:41;;;;;;;4.63;2.00;;;;;;;33.49;21.55;99694.63;10334004;28;20073;-80
2022/08/03 12:51:58;;;;;;;4.75;2.08;;;;;;;33.63;21.68;99683.22;10330447;28;20128;-81
2022/08/03 12:57:12;;;;;;;6.47;1.80;;;;;;;33.78;20.94;99683.44;10330953;28;20054;-80
2022/08/03 13:02:21;;;;;;;5.30;1.63;;;;;;;33.63;21.21;99680.50;10347308;28;20062;-80
2022/08/03 13:07:24;;;;;;;4.77;1.50;;;;;;;33.71;21.16;99677.38;10333609;28;20423;-80
2022/08/03 13:12:27;;;;;;;5.43;1.67;;;;;;;33.70;21.00;99675.72;10333162;28;20121;-81
2022/08/03 13:17:31;;;;;;;4.32;1.40;;;;;;;33.97;20.76;99685.91;10331233;28;20078;-81
2022/08/03 13:22:35;;;;;;;4.88;1.40;;;;;;;34.01;20.83;99665.34;10346815;28;20065;-80
2022/08/03 13:27:38;;;;;;;2.70;1.30;;;;;;;34.39;20.29;99662.59;10348890;28;20049;-81
2022/08/03 13:33:09;;;;;;;3.75;1.40;;;;;;;34.21;20.10;99668.31;10340588;28;20054;-81
2022/08/03 13:38:11;;;;;;;4.20;1.52;;;;;;;34.46;20.08;99655.09;10330434;28;20042;-82
2022/08/03 13:43:15;;;;;;;3.30;1.30;;;;;;;34.75;19.77;99651.09;10328275;28;20065;-81
2022/08/03 13:48:18;;;;;;;5.03;2.08;;;;;;;34.68;19.81;99653.19;10328770;28;20045;-81
2022/08/03 13:53:37;;;;;;;3.75;1.33;;;;;;;34.61;19.98;99647.16;10330605;28;20507;-81
2022/08/03 13:58:50;;;;;;;4.07;1.23;;;;;;;34.56;19.95;99644.38;10329558;28;20529;-82
2022/08/03 14:03:55;;;;;;;2.00;1.30;;;;;;;34.83;19.53;99637.06;10330045;28;20483;-82
2022/08/03 14:09:03;;;;;;;2.95;1.50;;;;;;;34.34;19.46;99635.38;10336914;28;20144;-82
2022/08/03 14:14:05;;;;;;;6.15;1.50;;;;;;;34.37;19.77;99621.28;10338432;28;20054;-82
2022/08/03 14:19:29;;;;;;;4.28;1.30;;;;;;;34.55;19.73;99619.09;10339084;28;20046;-82
2022/08/03 14:24:31;;;;;;;6.78;1.40;;;;;;;34.66;20.03;99625.47;10337020;28;20057;-81
2022/08/03 14:29:32;;;;;;;5.85;1.40;;;;;;;34.71;19.69;99619.25;10342120;28;20050;-81
2022/08/03 14:34:34;;;;;;;6.53;1.48;;;;;;;34.60;19.75;99604.75;10337829;28;20221;-82
2022/08/03 14:39:37;;;;;;;5.07;1.58;;;;;;;34.65;19.96;99607.53;10338644;28;20056;-82
2022/08/03 14:44:59;;;;;;;6.20;1.65;;;;;;;34.49;20.25;99598.38;10335955;28;20136;-82
2022/08/03 14:50:08;;;;;;;4.93;1.40;;;;;;;34.79;19.76;99595.19;10340038;28;20129;-81
2022/08/03 14:55:29;;;;;;;3.80;1.30;;;;;;;34.58;19.65;99596.88;10351844;28;20458;-81
2022/08/03 15:00:52;;;;;;;2.95;1.50;;;;;;;34.73;19.98;99585.34;10350759;28;20056;-82
2022/08/03 15:05:55;;;;;;;5.70;1.48;;;;;;;34.71;19.70;99582.06;10335033;28;20058;-82
2022/08/03 15:10:57;;;;;;;2.42;1.40;;;;;;;34.70;19.61;99580.41;10333458;28;20054;-82
2022/08/03 15:15:59;;;;;;;3.20;1.50;;;;;;;34.56;19.62;99577.28;10331546;28;20842;-82
2022/08/03 15:21:01;;;;;;;3.10;1.50;;;;;;;34.61;19.86;99568.38;10334915;28;20077;-81
2022/08/03 15:26:02;;;;;;;4.13;1.45;;;;;;;34.25;19.94;99575.28;10331563;28;20085;-81
2022/08/03 15:31:24;;;;;;;2.72;1.40;;;;;;;33.92;20.11;99561.78;10334184;28;20185;-81
2022/08/03 15:36:26;;;;;;;4.70;1.50;;;;;;;34.19;19.85;99560.00;10334833;28;20136;-82
2022/08/03 15:41:28;;;;;;;3.10;1.40;;;;;;;34.32;20.06;99558.78;10331615;28;20049;-81
2022/08/03 15:46:30;;;;;;;2.83;1.45;;;;;;;34.39;19.79;99554.78;10333008;28;20053;-81
2022/08/03 15:51:32;;;;;;;4.55;1.42;;;;;;;34.23;19.81;99553.00;10350065;28;20045;-82
2022/08/03 15:56:34;;;;;;;4.45;1.60;;;;;;;34.29;19.99;99548.44;10331252;28;20062;-81
2022/08/03 16:01:36;;;;;;;6.22;1.50;;;;;;;34.16;19.94;99538.81;10334348;28;20054;-82
2022/08/03 16:06:39;;;;;;;2.58;1.50;;;;;;;34.37;19.82;99534.41;10332824;28;20054;-82
2022/08/03 16:11:41;;;;;;;3.03;1.40;;;;;;;34.53;19.82;99533.53;10350042;28;20105;-82
2022/08/03 16:16:43;;;;;;;2.33;1.55;;;;;;;34.50;19.75;99537.56;10332507;28;20096;-81
2022/08/03 16:21:47;;;;;;;2.47;1.48;;;;;;;34.17;19.95;99534.19;10333021;28;20060;-81
2022/08/03 16:26:50;;;;;;;2.28;1.35;;;;;;;34.09;20.00;99531.91;10347737;28;20050;-81
2022/08/03 16:31:53;;;;;;;5.55;1.60;;;;;;;33.93;20.15;99527.34;10333361;28;20112;-81
2022/08/03 16:36:55;;;;;;;4.68;1.45;;;;;;;33.84;20.21;99530.50;10334953;28;20057;-81
2022/08/03 16:41:58;;;;;;;3.70;1.58;;;;;;;34.13;20.55;99533.03;10335274;28;20070;-82
2022/08/03 16:47:02;;;;;;;2.72;1.30;;;;;;;34.18;20.29;99531.22;10347405;28;20457;-81
2022/08/03 16:52:04;;;;;;;10.80;2.35;;;;;;;34.18;20.51;99530.41;10335015;28;20085;-79
2022/08/03 16:57:07;;;;;;;6.72;1.70;;;;;;;34.09;20.41;99521.06;10334471;28;20058;-81
2022/08/03 17:02:19;;;;;;;4.38;1.60;;;;;;;34.12;20.42;99526.00;10331479;28;20623;-81
2022/08/03 17:07:26;;;;;;;4.40;1.58;;;;;;;33.91;20.57;99530.31;10348985;28;20057;-81
2022/08/03 17:12:30;;;;;;;3.13;1.48;;;;;;;33.87;20.81;99525.66;10331420;28;20062;-82
2022/08/03 17:17:34;;;;;;;4.75;1.65;;;;;;;33.75;20.23;99525.78;10330175;28;20053;-81
2022/08/03 17:23:52;;;;;;;3.35;1.50;;;;;;;33.63;20.84;99528.63;10328351;28;20058;-81
2022/08/03 17:29:02;;;;;;;7.20;1.60;;;;;;;33.68;21.18;99530.56;10280593;28;20409;-81
2022/08/03 17:34:14;;;;;;;3.72;1.52;;;;;;;33.68;20.53;99531.38;10341404;28;20534;-81
2022/08/03 17:39:16;;;;;;;3.47;1.60;;;;;;;33.61;20.94;99528.03;10331096;28;20058;-80
2022/08/03 17:44:41;;;;;;;3.25;1.40;;;;;;;33.50;20.46;99528.13;10331012;28;20420;-81
2022/08/03 17:49:48;;;;;;;6.00;1.40;;;;;;;33.44;20.87;99527.22;10330539;28;20195;-81
2022/08/03 17:55:15;;;;;;;5.88;1.60;;;;;;;33.25;21.06;99531.28;10329209;28;20055;-81
2022/08/03 18:06:06;;;;;;;2.47;1.45;;;;;;;32.88;21.91;99541.75;10286954;28;1179384;-81
2022/08/03 18:11:20;;;;;;;3.45;1.55;;;;;;;32.74;22.08;99542.31;10331131;28;20061;-81
2022/08/03 18:16:29;;;;;;;5.65;1.58;;;;;;;32.54;22.22;99539.25;10329910;28;20156;-81
2022/08/03 18:21:31;;;;;;;2.92;1.52;;;;;;;32.31;22.70;99545.56;10327545;28;20081;-81
2022/08/03 18:26:54;;;;;;;3.00;1.38;;;;;;;32.05;22.70;99546.94;10327098;28;20054;-81
2022/08/03 18:31:59;;;;;;;5.40;1.67;;;;;;;31.87;23.22;99547.09;10329618;28;20136;-81
2022/08/03 18:37:04;;;;;;;4.38;1.38;;;;;;;31.70;23.45;99550.78;10327363;28;20054;-81
2022/08/03 18:42:09;;;;;;;4.25;1.70;;;;;;;31.35;23.70;99556.19;10336091;28;20074;-81
2022/08/03 18:47:33;;;;;;;4.07;1.80;;;;;;;31.00;24.13;99555.31;10331183;28;20057;-81
2022/08/03 18:53:06;;;;;;;9.68;1.50;;;;;;;30.61;24.99;99560.25;10329574;28;20133;-81
2022/08/03 18:59:06;;;;;;;3.38;1.63;;;;;;;30.20;25.19;99560.16;10352019;28;20081;-81
2022/08/03 19:04:28;;;;;;;5.72;1.50;;;;;;;29.89;25.90;99563.00;10302631;28;20053;-81
2022/08/03 19:09:36;;;;;;;11.85;1.65;;;;;;;29.58;26.68;99563.94;10338110;28;20522;-81
2022/08/03 19:14:46;;;;;;;3.72;1.40;;;;;;;29.40;27.02;99573.91;10351512;28;20082;-81
2022/08/03 19:19:50;;;;;;;5.87;1.60;;;;;;;29.02;27.06;99590.94;10348268;28;20147;-80
2022/08/03 19:24:54;;;;;;;4.13;1.60;;;;;;;28.71;28.01;99596.31;10337146;28;20800;-81
2022/08/03 19:29:58;;;;;;;6.07;1.70;;;;;;;28.55;28.07;99593.28;10350924;28;20054;-80
2022/08/03 19:35:05;;;;;;;5.95;1.65;;;;;;;28.42;28.55;99602.25;10350954;28;20062;-80
2022/08/03 19:40:19;;;;;;;4.38;1.67;;;;;;;28.28;29.01;99595.25;10338161;28;20046;-80
2022/08/03 19:45:34;;;;;;;7.43;1.80;;;;;;;28.09;29.60;99604.25;10336857;28;20064;-80
2022/08/03 19:50:57;;;;;;;5.43;1.80;;;;;;;27.86;29.38;99603.88;10353678;28;20137;-80
2022/08/03 19:56:04;;;;;;;4.55;1.73;;;;;;;27.41;31.01;99601.03;10337085;28;20062;-80
2022/08/03 20:01:06;;;;;;;4.47;1.85;;;;;;;27.32;30.90;99612.19;10336535;28;20080;-80
2022/08/03 20:06:22;;;;;;;12.35;2.17;;;;;;;27.36;31.60;99611.56;10339315;28;20057;-80
2022/08/03 20:11:25;;;;;;;6.35;1.95;;;;;;;27.39;31.93;99616.53;10337809;28;20096;-80
2022/08/03 20:16:29;;;;;;;6.05;2.00;;;;;;;27.18;32.76;99611.34;10332618;28;20530;-78
2022/08/03 20:21:33;;;;;;;6.47;1.90;;;;;;;27.16;33.00;99610.72;10336395;28;20054;-78
2022/08/03 20:26:41;;;;;;;7.45;1.85;;;;;;;27.07;33.16;99600.38;10335472;28;20054;-78
2022/08/03 20:31:43;;;;;;;4.78;1.80;;;;;;;26.85;33.30;99606.97;10337388;28;20050;-78
2022/08/03 20:36:45;;;;;;;6.50;2.05;;;;;;;26.72;33.91;99601.56;10330110;28;20126;-78
2022/08/03 20:41:47;;;;;;;3.63;1.70;;;;;;;26.58;34.27;99609.59;10333184;28;20077;-78
2022/08/03 20:46:49;;;;;;;3.60;1.80;;;;;;;26.41;34.33;99608.25;10330291;28;20105;-78
2022/08/03 20:52:02;;;;;;;3.33;1.73;;;;;;;26.31;34.64;99615.00;10332957;28;20049;-78
2022/08/03 20:57:05;;;;;;;2.85;1.63;;;;;;;26.05;35.31;99612.22;10333813;28;20393;-79
2022/08/03 21:02:11;;;;;;;6.38;1.80;;;;;;;25.75;35.59;99612.41;10331145;28;20049;-79
2022/08/03 21:07:22;;;;;;;7.22;1.80;;;;;;;25.68;35.50;99611.56;10343218;28;20503;-79
2022/08/03 21:13:06;;;;;;;5.97;1.70;;;;;;;25.65;35.91;99606.59;10330783;28;20054;-79
2022/08/03 21:18:19;;;;;;;5.97;2.00;;;;;;;25.13;36.54;99611.50;10331628;28;20621;-79
2022/08/03 21:23:22;;;;;;;4.50;1.90;;;;;;;25.18;36.58;99611.78;10329254;28;20610;-79
2022/08/03 21:28:44;;;;;;;7.80;2.10;;;;;;;25.24;36.69;99607.50;10345380;28;20496;-79
2022/08/03 21:33:47;;;;;;;16.08;2.05;;;;;;;25.16;37.17;99611.16;10336215;28;20054;-78
2022/08/03 21:38:50;;;;;;;5.03;2.10;;;;;;;25.09;37.24;99612.91;10334097;28;20137;-79
2022/08/03 21:43:59;;;;;;;5.22;2.25;;;;;;;24.83;37.71;99612.66;10330393;28;20701;-78
2022/08/03 21:49:05;;;;;;;6.30;1.95;;;;;;;24.51;38.23;99605.09;10332375;28;20092;-79
2022/08/03 21:54:39;;;;;;;6.18;1.90;;;;;;;24.36;38.75;99601.63;10333899;28;20058;-79
2022/08/03 21:59:49;;;;;;;3.17;1.92;;;;;;;24.42;38.78;99607.03;10334779;28;20050;-79
2022/08/03 22:04:51;;;;;;;4.88;2.00;;;;;;;24.26;38.74;99610.78;10329625;28;20054;-79
2022/08/03 22:10:00;;;;;;;3.97;1.80;;;;;;;23.67;39.66;99613.59;10336249;28;20052;-78
2022/08/03 22:15:06;;;;;;;5.68;2.05;;;;;;;23.45;40.01;99623.34;10331961;28;20058;-79
2022/08/03 22:20:11;;;;;;;7.55;2.08;;;;;;;23.46;40.11;99625.81;10336028;28;20069;-78
2022/08/03 22:25:15;;;;;;;4.25;2.05;;;;;;;23.57;40.12;99623.72;10333598;28;20054;-78
2022/08/03 22:30:18;;;;;;;3.35;1.83;;;;;;;23.51;40.16;99625.28;10336963;28;20046;-78
2022/08/03 22:35:22;;;;;;;3.70;1.80;;;;;;;23.42;40.46;99627.19;10355729;28;20058;-78
2022/08/03 22:40:26;;;;;;;4.72;2.10;;;;;;;23.46;40.44;99631.16;10356287;28;20384;-79
2022/08/03 22:45:28;;;;;;;4.38;1.95;;;;;;;23.52;40.44;99634.94;10354614;28;20054;-79
2022/08/03 22:50:50;;;;;;;4.00;1.95;;;;;;;23.52;40.67;99634.09;10339279;28;20050;-79
2022/08/03 22:55:52;;;;;;;4.90;1.90;;;;;;;23.51;41.03;99635.13;10355373;28;20093;-78
2022/08/03 23:00:57;;;;;;;4.28;1.90;;;;;;;23.50;41.26;99628.94;10334821;28;20046;-79
2022/08/03 23:05:59;;;;;;;4.60;2.08;;;;;;;23.07;41.89;99629.63;10340555;28;20546;-78
2022/08/03 23:11:09;;;;;;;6.45;2.30;;;;;;;22.62;43.08;99635.72;10335296;28;20137;-78
2022/08/03 23:16:12;;;;;;;8.75;2.47;;;;;;;22.72;42.89;99630.19;10337289;28;20264;-79
2022/08/03 23:21:16;;;;;;;3.13;2.00;;;;;;;22.89;42.37;99635.28;10355531;28;20080;-79
2022/08/03 23:26:39;;;;;;;5.80;2.00;;;;;;;22.97;42.00;99637.88;10351053;28;20411;-79
2022/08/03 23:31:43;;;;;;;6.22;1.90;;;;;;;22.85;42.22;99636.63;10337860;28;20039;-78
2022/08/03 23:36:47;;;;;;;5.35;2.22;;;;;;;22.54;42.62;99639.28;10333847;28;20054;-78
2022/08/03 23:41:51;;;;;;;4.72;1.92;;;;;;;22.27;42.99;99638.94;10334818;28;20049;-79
2022/08/03 23:46:53;;;;;;;5.45;2.25;;;;;;;22.31;43.02;99637.59;10332326;28;20081;-79
2022/08/03 23:52:22;;;;;;;3.60;2.10;;;;;;;22.30;43.32;99647.41;10351566;28;20058;-78
